createdAt,value
2022-09-07T00:00:53.398Z,13.44
2022-09-07T00:03:21.078Z,13.41
2022-09-07T00:05:51.024Z,13.40
2022-09-07T00:08:20.832Z,13.39
2022-09-07T00:11:05.800Z,13.26
2022-09-07T00:13:36.068Z,13.22
2022-09-07T00:16:08.438Z,13.16
2022-09-07T00:18:35.997Z,13.13
2022-09-07T00:21:06.542Z,13.14
2022-09-07T00:23:35.533Z,13.10
2022-09-07T00:26:08.132Z,13.06
2022-09-07T00:28:36.097Z,13.02
2022-09-07T00:31:04.193Z,12.99
2022-09-07T00:33:31.704Z,12.99
2022-09-07T00:35:59.692Z,13.00
2022-09-07T00:38:26.855Z,13.02
2022-09-07T00:40:54.021Z,12.92
2022-09-07T00:43:39.294Z,12.90
2022-09-07T00:46:12.296Z,12.87
2022-09-07T00:48:58.853Z,12.85
2022-09-07T00:51:43.630Z,12.85
2022-09-07T00:54:19.021Z,12.80
2022-09-07T00:56:49.336Z,12.80
2022-09-07T00:59:20.775Z,12.80
2022-09-07T01:01:48.329Z,12.77
2022-09-07T01:04:16.783Z,12.69
2022-09-07T01:06:44.592Z,12.70
2022-09-07T01:09:20.818Z,12.70
2022-09-07T01:11:51.394Z,12.69
2022-09-07T01:14:29.408Z,12.63
2022-09-07T01:17:15.307Z,12.62
2022-09-07T01:20:05.002Z,12.64
2022-09-07T01:22:54.783Z,12.61
2022-09-07T01:25:51.696Z,12.57
2022-09-07T01:28:33.776Z,12.51
2022-09-07T01:31:14.441Z,12.47
2022-09-07T01:34:09.253Z,12.45
2022-09-07T01:37:06.861Z,12.41
2022-09-07T01:39:48.260Z,12.40
2022-09-07T01:42:21.476Z,12.40
2022-09-07T01:44:58.681Z,12.38
2022-09-07T01:47:48.842Z,12.32
2022-09-07T01:50:42.322Z,12.31
2022-09-07T01:53:16.910Z,12.23
2022-09-07T01:56:18.195Z,12.21
2022-09-07T01:58:52.108Z,12.16
2022-09-07T02:01:54.135Z,12.15
2022-09-07T02:04:28.558Z,12.17
2022-09-07T02:07:21.295Z,12.14
2022-09-07T02:10:11.383Z,12.11
2022-09-07T02:13:08.609Z,12.05
2022-09-07T02:16:00.333Z,12.07
2022-09-07T02:18:34.686Z,12.07
2022-09-07T02:21:03.177Z,12.06
2022-09-07T02:23:40.457Z,12.05
2022-09-07T02:26:15.931Z,12.03
2022-09-07T02:28:44.049Z,12.02
2022-09-07T02:31:11.366Z,11.99
2022-09-07T02:33:38.901Z,11.94
2022-09-07T02:36:06.758Z,11.88
2022-09-07T02:38:36.167Z,11.84
2022-09-07T02:41:04.431Z,11.82
2022-09-07T02:43:33.272Z,11.78
2022-09-07T02:46:29.573Z,11.77
2022-09-07T02:49:16.897Z,11.73
2022-09-07T02:52:16.206Z,11.70
2022-09-07T02:55:05.851Z,11.64
2022-09-07T02:57:35.317Z,11.55
2022-09-07T03:00:21.121Z,11.48
2022-09-07T03:03:18.711Z,11.44
2022-09-07T03:05:48.557Z,11.41
2022-09-07T03:08:26.897Z,11.40
2022-09-07T03:10:54.944Z,11.39
2022-09-07T03:13:28.203Z,11.40
2022-09-07T03:15:56.734Z,11.37
2022-09-07T03:18:24.889Z,11.35
2022-09-07T03:20:51.943Z,11.35
2022-09-07T03:23:19.203Z,11.39
2022-09-07T03:25:47.939Z,11.43
2022-09-07T03:28:16.268Z,11.43
2022-09-07T03:30:45.347Z,11.44
2022-09-07T03:33:12.461Z,11.46
2022-09-07T03:35:39.874Z,11.42
2022-09-07T03:38:07.011Z,11.40
2022-09-07T03:40:34.121Z,11.40
2022-09-07T03:43:01.098Z,11.42
2022-09-07T03:45:28.166Z,11.45
2022-09-07T03:47:55.678Z,11.45
2022-09-07T03:50:22.865Z,11.43
2022-09-07T03:52:49.878Z,11.42
2022-09-07T03:55:16.948Z,11.38
2022-09-07T03:57:44.129Z,11.37
2022-09-07T04:00:12.223Z,11.37
2022-09-07T04:02:42.557Z,11.39
2022-09-07T04:05:10.016Z,11.39
2022-09-07T04:07:36.979Z,11.41
2022-09-07T04:10:04.338Z,11.38
2022-09-07T04:12:31.354Z,11.39
2022-09-07T04:14:58.336Z,11.37
2022-09-07T04:17:26.158Z,11.38
2022-09-07T04:19:53.174Z,11.38
2022-09-07T04:22:28.890Z,11.34
2022-09-07T04:24:56.083Z,11.31
2022-09-07T04:27:22.977Z,11.31
2022-09-07T04:29:50.154Z,11.32
2022-09-07T04:32:17.180Z,11.34
2022-09-07T04:34:44.350Z,11.35
2022-09-07T04:37:12.759Z,11.34
2022-09-07T04:39:39.929Z,11.32
2022-09-07T04:42:07.003Z,11.29
2022-09-07T04:44:34.462Z,11.27
2022-09-07T04:47:01.548Z,11.25
2022-09-07T04:49:28.700Z,11.25
2022-09-07T04:51:55.677Z,11.25
2022-09-07T04:54:22.755Z,11.25
2022-09-07T04:56:49.738Z,11.24
2022-09-07T04:59:16.591Z,11.24
2022-09-07T05:01:43.667Z,11.26
2022-09-07T05:04:14.159Z,11.25
2022-09-07T05:06:41.797Z,11.25
2022-09-07T05:09:10.818Z,11.26
2022-09-07T05:11:37.877Z,11.29
2022-09-07T05:14:05.350Z,11.32
2022-09-07T05:16:34.193Z,11.34
2022-09-07T05:19:08.435Z,11.37
2022-09-07T05:21:46.025Z,11.39
2022-09-07T05:24:13.318Z,11.42
2022-09-07T05:26:40.444Z,11.44
2022-09-07T05:31:55.161Z,11.50
2022-09-07T05:34:29.971Z,11.51
2022-09-07T05:36:59.058Z,11.57
2022-09-07T05:39:26.889Z,11.62
2022-09-07T05:41:54.187Z,11.66
2022-09-07T05:47:09.834Z,11.74
2022-09-07T05:49:36.690Z,11.77
2022-09-07T05:52:03.837Z,11.81
2022-09-07T05:54:30.935Z,11.85
2022-09-07T05:56:57.922Z,11.92
2022-09-07T05:59:24.737Z,11.99
2022-09-07T06:01:51.690Z,12.05
2022-09-07T06:04:18.639Z,12.09
2022-09-07T06:07:04.648Z,12.18
2022-09-07T06:09:32.436Z,12.25
2022-09-07T06:11:59.544Z,12.32
2022-09-07T06:14:26.320Z,12.36
2022-09-07T06:16:54.051Z,12.42
2022-09-07T06:19:21.071Z,12.47
2022-09-07T06:21:47.887Z,12.55
2022-09-07T06:24:14.762Z,12.58
2022-09-07T06:26:41.668Z,12.62
2022-09-07T06:29:10.918Z,12.70
2022-09-07T06:34:25.831Z,12.82
2022-09-07T06:36:52.614Z,12.87
2022-09-07T06:39:19.351Z,12.94
2022-09-07T06:42:01.818Z,13.01
2022-09-07T06:44:31.326Z,13.08
2022-09-07T06:47:05.275Z,13.15
2022-09-07T06:49:32.336Z,13.21
2022-09-07T06:51:59.189Z,13.28
2022-09-07T06:57:12.884Z,13.42
2022-09-07T06:59:39.980Z,13.47
2022-09-07T07:02:08.176Z,13.55
2022-09-07T07:04:40.236Z,13.62
2022-09-07T07:07:12.528Z,13.71
2022-09-07T07:09:40.334Z,13.79
2022-09-07T07:12:07.647Z,13.87
2022-09-07T07:14:37.423Z,13.94
2022-09-07T07:17:06.788Z,14.02
2022-09-07T07:19:33.731Z,14.07
2022-09-07T07:24:47.797Z,14.20
2022-09-07T07:27:14.531Z,14.27
2022-09-07T07:29:42.482Z,14.35
2022-09-07T07:32:09.879Z,14.42
2022-09-07T07:34:36.778Z,14.47
2022-09-07T07:37:03.625Z,14.55
2022-09-07T07:42:17.322Z,14.72
2022-09-07T07:44:45.037Z,14.81
2022-09-07T07:47:11.822Z,14.87
2022-09-07T07:49:38.669Z,14.88
2022-09-07T07:54:53.349Z,15.03
2022-09-07T07:57:20.191Z,15.11
2022-09-07T07:59:46.963Z,15.17
2022-09-07T08:02:16.276Z,15.21
2022-09-07T08:04:43.655Z,15.30
2022-09-07T08:07:12.227Z,15.40
2022-09-07T08:09:43.310Z,15.52
2022-09-07T08:12:12.412Z,15.65
2022-09-07T08:14:41.515Z,15.77
2022-09-07T08:17:14.428Z,15.88
2022-09-07T08:19:41.618Z,16.00
2022-09-07T08:22:11.007Z,16.11
2022-09-07T08:24:38.165Z,16.19
2022-09-07T08:27:05.437Z,16.31
2022-09-07T08:29:35.315Z,16.46
2022-09-07T08:32:05.210Z,16.55
2022-09-07T08:34:32.522Z,16.63
2022-09-07T08:36:59.368Z,16.74
2022-09-07T08:39:26.380Z,16.90
2022-09-07T08:42:07.129Z,17.03
2022-09-07T08:44:39.379Z,17.17
2022-09-07T08:47:19.182Z,17.32
2022-09-07T08:50:02.327Z,17.45
2022-09-07T08:52:48.279Z,17.58
2022-09-07T08:55:31.438Z,17.72
2022-09-07T08:58:32.565Z,17.87
2022-09-07T09:01:33.748Z,18.04
2022-09-07T09:04:17.997Z,18.17
2022-09-07T09:07:03.304Z,18.28
2022-09-07T09:09:35.678Z,18.35
2022-09-07T09:12:23.716Z,18.53
2022-09-07T09:14:59.522Z,18.71
2022-09-07T09:17:26.271Z,18.87
2022-09-07T09:19:55.824Z,19.03
2022-09-07T09:22:26.803Z,19.19
2022-09-07T09:25:03.889Z,19.39
2022-09-07T09:27:30.688Z,19.59
2022-09-07T09:29:57.525Z,19.75
2022-09-07T09:32:35.813Z,19.88
2022-09-07T09:35:18.757Z,20.02
2022-09-07T09:37:46.290Z,20.17
2022-09-07T09:40:39.390Z,20.31
2022-09-07T09:43:21.720Z,20.41
2022-09-07T09:48:41.748Z,20.65
2022-09-07T09:54:00.100Z,20.86
2022-09-07T09:56:57.027Z,21.03
2022-09-07T10:05:28.666Z,21.57
2022-09-07T10:07:56.928Z,21.71
2022-09-07T10:10:24.583Z,21.89
2022-09-07T10:12:54.672Z,22.03
2022-09-07T10:15:29.297Z,22.12
2022-09-07T10:17:58.377Z,22.27
2022-09-07T10:20:37.004Z,22.39
2022-09-07T10:23:06.004Z,22.50
2022-09-07T10:25:41.209Z,22.60
2022-09-07T10:28:11.771Z,22.71
2022-09-07T10:30:47.903Z,22.89
2022-09-07T10:33:24.583Z,23.02
2022-09-07T10:36:36.841Z,23.12
2022-09-07T10:39:08.560Z,23.28
2022-09-07T10:41:35.561Z,23.37
2022-09-07T10:44:04.774Z,23.52
2022-09-07T10:46:58.612Z,23.68
2022-09-07T10:49:34.621Z,23.68
2022-09-07T10:52:16.672Z,23.79
2022-09-07T10:55:18.056Z,23.89
2022-09-07T10:57:54.522Z,24.05
2022-09-07T11:00:24.427Z,24.20
2022-09-07T11:03:36.036Z,24.29
2022-09-07T11:06:14.250Z,24.45
2022-09-07T11:12:09.886Z,24.66
2022-09-07T11:14:43.222Z,24.61
2022-09-07T11:17:21.111Z,24.65
2022-09-07T11:19:56.988Z,24.84
2022-09-07T11:22:45.691Z,25.03
2022-09-07T11:25:30.428Z,25.13
2022-09-07T11:28:23.471Z,25.31
2022-09-07T11:31:00.067Z,25.57
2022-09-07T11:33:42.151Z,25.60
2022-09-07T11:36:14.823Z,25.40
2022-09-07T11:38:51.486Z,25.45
2022-09-07T11:41:30.164Z,25.50
2022-09-07T11:44:13.828Z,25.56
2022-09-07T11:46:51.670Z,25.61
2022-09-07T11:49:24.188Z,25.67
2022-09-07T11:51:55.100Z,25.85
2022-09-07T11:54:33.902Z,25.92
2022-09-07T11:57:18.117Z,26.16
2022-09-07T11:59:51.647Z,26.46
2022-09-07T12:02:58.197Z,26.69
2022-09-07T12:06:01.610Z,26.78
2022-09-07T12:08:58.569Z,26.77
2022-09-07T12:11:46.609Z,26.83
2022-09-07T12:14:22.565Z,26.89
2022-09-07T12:17:01.296Z,27.04
2022-09-07T12:19:28.747Z,27.19
2022-09-07T12:21:59.708Z,27.37
2022-09-07T12:24:35.736Z,27.55
2022-09-07T12:27:23.969Z,27.74
2022-09-07T12:30:14.393Z,28.01
2022-09-07T12:32:55.224Z,28.18
2022-09-07T12:35:28.846Z,28.32
2022-09-07T12:37:57.224Z,28.42
2022-09-07T12:40:36.286Z,28.50
2022-09-07T12:43:15.197Z,28.54
2022-09-07T12:45:45.255Z,28.57
2022-09-07T12:48:17.718Z,28.62
2022-09-07T12:51:59.643Z,28.57
2022-09-07T12:54:42.502Z,28.47
2022-09-07T12:57:33.144Z,28.50
2022-09-07T13:00:25.879Z,28.44
2022-09-07T13:03:51.017Z,28.39
2022-09-07T13:07:01.828Z,28.53
2022-09-07T13:09:23.116Z,28.70
2022-09-07T13:11:49.976Z,28.85
2022-09-07T13:14:23.308Z,28.92
2022-09-07T13:17:29.744Z,28.99
2022-09-07T13:19:56.808Z,29.08
2022-09-07T13:22:29.784Z,29.05
2022-09-07T13:24:59.937Z,29.13
2022-09-07T13:27:43.527Z,29.25
2022-09-07T13:30:16.670Z,29.30
2022-09-07T13:35:32.121Z,29.13
2022-09-07T13:38:03.889Z,29.10
2022-09-07T13:40:38.202Z,29.11
2022-09-07T13:43:06.392Z,29.15
2022-09-07T13:45:54.932Z,29.16
2022-09-07T13:48:37.076Z,29.13
2022-09-07T13:51:30.504Z,29.06
2022-09-07T13:54:19.013Z,29.00
2022-09-07T13:57:04.535Z,28.93
2022-09-07T13:59:34.038Z,28.90
2022-09-07T14:02:01.564Z,28.91
2022-09-07T14:05:05.337Z,28.99
2022-09-07T14:07:33.061Z,28.78
2022-09-07T14:10:20.967Z,28.81
2022-09-07T14:12:53.126Z,29.13
2022-09-07T14:15:42.101Z,29.34
2022-09-07T14:18:22.754Z,29.56
2022-09-07T14:20:54.076Z,30.05
2022-09-07T14:23:32.851Z,30.44
2022-09-07T14:26:20.417Z,30.77
2022-09-07T14:28:50.136Z,30.72
2022-09-07T14:31:20.251Z,30.57
2022-09-07T14:33:59.308Z,30.47
2022-09-07T14:36:48.270Z,30.37
2022-09-07T14:39:18.894Z,30.17
2022-09-07T14:41:46.826Z,30.07
2022-09-07T14:44:46.742Z,29.96
2022-09-07T14:47:29.863Z,29.82
2022-09-07T14:50:05.315Z,29.75
2022-09-07T14:53:33.272Z,29.59
2022-09-07T14:55:32.699Z,29.33
2022-09-07T14:58:36.500Z,29.22
2022-09-07T15:04:15.722Z,29.19
2022-09-07T15:09:43.587Z,28.92
2022-09-07T15:12:19.142Z,28.86
2022-09-07T15:14:47.865Z,28.71
2022-09-07T15:20:35.983Z,28.41
2022-09-07T15:23:05.781Z,28.38
2022-09-07T15:25:34.754Z,28.47
2022-09-07T15:28:02.108Z,28.80
2022-09-07T15:30:29.200Z,28.85
2022-09-07T15:32:57.330Z,28.71
2022-09-07T15:35:27.285Z,28.57
2022-09-07T15:38:02.911Z,28.46
2022-09-07T15:41:03.798Z,28.32
2022-09-07T15:43:29.129Z,28.02
2022-09-07T15:45:56.242Z,27.81
2022-09-07T15:48:27.693Z,27.74
2022-09-07T15:54:17.679Z,27.31
2022-09-07T15:57:48.483Z,27.11
2022-09-07T15:59:32.110Z,26.96
2022-09-07T16:01:59.427Z,26.74
2022-09-07T16:04:26.662Z,26.50
2022-09-07T16:06:53.675Z,26.39
2022-09-07T16:09:21.707Z,26.16
2022-09-07T16:11:50.658Z,25.91
2022-09-07T16:14:18.698Z,25.64
2022-09-07T16:19:35.054Z,25.25
2022-09-07T16:22:03.364Z,24.98
2022-09-07T16:24:30.586Z,24.62
2022-09-07T16:26:57.718Z,24.32
2022-09-07T16:29:24.741Z,24.13
2022-09-07T16:34:39.940Z,23.75
2022-09-07T16:37:07.661Z,23.55
2022-09-07T16:39:35.586Z,23.35
2022-09-07T16:42:03.023Z,23.20
2022-09-07T16:44:30.202Z,23.04
2022-09-07T16:46:57.517Z,22.90
2022-09-07T16:49:24.945Z,22.75
2022-09-07T16:51:52.595Z,22.58
2022-09-07T16:54:21.208Z,22.42
2022-09-07T16:56:48.455Z,22.29
2022-09-07T16:59:21.484Z,22.15
2022-09-07T17:01:48.508Z,22.00
2022-09-07T17:04:15.502Z,21.85
2022-09-07T17:06:43.329Z,21.67
2022-09-07T17:09:13.653Z,21.54
2022-09-07T17:11:41.146Z,21.43
2022-09-07T17:14:08.322Z,21.33
2022-09-07T17:16:39.303Z,21.22
2022-09-07T17:21:57.375Z,21.00
2022-09-07T17:24:24.615Z,20.87
2022-09-07T17:26:51.790Z,20.75
2022-09-07T17:29:18.924Z,20.66
2022-09-07T17:34:33.905Z,20.43
2022-09-07T17:37:01.433Z,20.31
2022-09-07T17:39:29.409Z,20.20
2022-09-07T17:41:56.531Z,20.10
2022-09-07T17:44:23.693Z,20.00
2022-09-07T17:46:51.441Z,19.91
2022-09-07T17:49:18.643Z,19.83
2022-09-07T17:51:46.628Z,19.72
2022-09-07T17:54:18.276Z,19.62
2022-09-07T17:56:46.349Z,19.53
2022-09-07T18:02:01.121Z,19.36
2022-09-07T18:04:28.734Z,19.28
2022-09-07T18:06:56.472Z,19.21
2022-09-07T18:09:23.799Z,19.14
2022-09-07T18:11:51.324Z,19.08
2022-09-07T18:14:19.315Z,19.01
2022-09-07T18:16:49.313Z,18.94
2022-09-07T18:19:18.322Z,18.88
2022-09-07T18:21:48.062Z,18.81
2022-09-07T18:24:23.211Z,18.74
2022-09-07T18:26:52.743Z,18.69
2022-09-07T18:29:33.178Z,18.64
2022-09-07T18:32:07.756Z,18.57
2022-09-07T18:34:36.122Z,18.49
2022-09-07T18:37:04.662Z,18.42
2022-09-07T18:39:32.773Z,18.37
2022-09-07T18:41:59.765Z,18.32
2022-09-07T18:47:22.285Z,18.23
2022-09-07T18:49:51.877Z,18.17
2022-09-07T18:55:08.792Z,18.10
2022-09-07T18:57:36.540Z,18.06
2022-09-07T19:00:07.986Z,18.02
2022-09-07T19:02:36.155Z,17.97
2022-09-07T19:07:52.636Z,17.88
2022-09-07T19:10:19.864Z,17.82
2022-09-07T19:12:46.989Z,17.77
2022-09-07T19:15:14.452Z,17.73
2022-09-07T19:17:41.683Z,17.70
2022-09-07T19:20:09.382Z,17.65
2022-09-07T19:22:36.397Z,17.57
2022-09-07T19:25:04.020Z,17.53
2022-09-07T19:27:33.284Z,17.48
2022-09-07T19:30:00.203Z,17.43
2022-09-07T19:32:27.489Z,17.40
2022-09-07T19:34:55.666Z,17.40
2022-09-07T19:37:25.737Z,17.39
2022-09-07T19:39:57.231Z,17.37
2022-09-07T19:42:25.597Z,17.35
2022-09-07T19:44:54.278Z,17.34
2022-09-07T19:47:22.745Z,17.31
2022-09-07T19:49:49.758Z,17.29
2022-09-07T19:52:16.786Z,17.26
2022-09-07T19:54:43.978Z,17.24
2022-09-07T19:57:11.039Z,17.22
2022-09-07T19:59:38.265Z,17.19
2022-09-07T20:02:06.399Z,17.16
2022-09-07T20:04:33.579Z,17.14
2022-09-07T20:07:00.729Z,17.12
2022-09-07T20:09:28.134Z,17.12
2022-09-07T20:11:55.062Z,17.08
2022-09-07T20:14:22.256Z,17.05
2022-09-07T20:16:49.290Z,17.03
2022-09-07T20:19:17.812Z,17.01
2022-09-07T20:21:45.408Z,17.00
2022-09-07T20:24:13.107Z,16.99
2022-09-07T20:26:40.480Z,16.98
2022-09-07T20:31:55.987Z,16.94
2022-09-07T20:34:23.008Z,16.91
2022-09-07T20:36:51.374Z,16.84
2022-09-07T20:39:18.951Z,16.79
2022-09-07T20:41:46.355Z,16.75
2022-09-07T20:44:14.476Z,16.73
2022-09-07T20:46:41.584Z,16.69
2022-09-07T20:49:09.297Z,16.65
2022-09-07T20:51:36.532Z,16.62
2022-09-07T20:54:03.964Z,16.58
2022-09-07T20:56:30.933Z,16.54
2022-09-07T20:59:00.421Z,16.50
2022-09-07T21:01:29.206Z,16.45
2022-09-07T21:03:58.283Z,16.43
2022-09-07T21:06:27.165Z,16.40
2022-09-07T21:08:55.305Z,16.38
2022-09-07T21:11:27.692Z,16.35
2022-09-07T21:14:02.908Z,16.31
2022-09-07T21:16:30.236Z,16.26
2022-09-07T21:19:00.100Z,16.21
2022-09-07T21:21:29.201Z,16.17
2022-09-07T21:23:59.411Z,16.14
2022-09-07T21:26:28.600Z,16.09
2022-09-07T21:29:00.743Z,16.05
2022-09-07T21:31:29.968Z,16.01
2022-09-07T21:33:59.116Z,15.94
2022-09-07T21:36:27.162Z,15.86
2022-09-07T21:38:54.954Z,15.84
2022-09-07T21:41:23.938Z,15.84
2022-09-07T21:44:02.476Z,15.82
2022-09-07T21:46:32.479Z,15.80
2022-09-07T21:49:00.636Z,15.73
2022-09-07T21:51:28.319Z,15.67
2022-09-07T21:53:57.471Z,15.68
2022-09-07T21:56:25.951Z,15.66
2022-09-07T21:58:55.573Z,15.60
2022-09-07T22:01:24.285Z,15.54
2022-09-07T22:03:59.745Z,15.48
2022-09-07T22:06:28.170Z,15.43
2022-09-07T22:08:55.513Z,15.40
2022-09-07T22:11:24.879Z,15.37
2022-09-07T22:13:57.013Z,15.34
2022-09-07T22:16:24.572Z,15.34
2022-09-07T22:18:52.285Z,15.29
2022-09-07T22:21:22.098Z,15.21
2022-09-07T22:23:52.656Z,15.19
2022-09-07T22:26:22.608Z,15.16
2022-09-07T22:28:49.726Z,15.14
2022-09-07T22:31:20.054Z,15.12
2022-09-07T22:33:48.426Z,15.05
2022-09-07T22:36:19.072Z,14.99
2022-09-07T22:38:48.478Z,14.97
2022-09-07T22:41:18.742Z,14.96
2022-09-07T22:43:47.028Z,14.94
2022-09-07T22:46:15.175Z,14.90
2022-09-07T22:48:44.081Z,14.84
2022-09-07T22:51:14.484Z,14.76
2022-09-07T22:53:43.149Z,14.73
2022-09-07T22:56:16.481Z,14.75
2022-09-07T22:58:47.797Z,14.75
2022-09-07T23:01:15.356Z,14.74
2022-09-07T23:03:44.626Z,14.71
2022-09-07T23:06:32.967Z,14.71
2022-09-07T23:09:01.965Z,14.66
2022-09-07T23:11:29.946Z,14.65
2022-09-07T23:13:59.877Z,14.64
2022-09-07T23:16:28.198Z,14.60
2022-09-07T23:18:58.137Z,14.50
2022-09-07T23:21:26.450Z,14.41
2022-09-07T23:23:56.060Z,14.39
2022-09-07T23:26:28.699Z,14.38
2022-09-07T23:29:00.610Z,14.39
2022-09-07T23:31:29.595Z,14.41
2022-09-07T23:33:57.991Z,14.42
2022-09-07T23:36:25.668Z,14.42
2022-09-07T23:38:56.354Z,14.42
2022-09-07T23:41:25.207Z,14.42
2022-09-07T23:43:53.321Z,14.40
2022-09-07T23:46:21.050Z,14.37
2022-09-07T23:48:49.236Z,14.33
2022-09-07T23:51:21.261Z,14.30
2022-09-07T23:53:51.025Z,14.27
2022-09-07T23:56:17.867Z,14.25
2022-09-07T23:58:45.424Z,14.23
